sensor_id;sensor_type;location;lat;lon;timestamp;P1;durP1;ratioP1;P2;durP2;ratioP2
3311;SDS011;1668;49.648;8.570;2024-03-23T00:53:42;14.70;;;10.07;;
3311;SDS011;1668;49.648;8.570;2024-03-23T00:56:08;17.30;;;10.33;;
3311;SDS011;1668;49.648;8.570;2024-03-23T00:58:35;19.50;;;10.63;;
3311;SDS011;1668;49.648;8.570;2024-03-23T01:01:01;16.37;;;11.10;;
3311;SDS011;1668;49.648;8.570;2024-03-23T01:03:29;13.10;;;10.40;;
3311;SDS011;1668;49.648;8.570;2024-03-23T01:05:57;15.90;;;11.40;;
3311;SDS011;1668;49.648;8.570;2024-03-23T01:08:25;13.03;;;10.40;;
3311;SDS011;1668;49.648;8.570;2024-03-23T01:10:56;17.17;;;11.30;;
3311;SDS011;1668;49.648;8.570;2024-03-23T01:13:23;16.90;;;11.60;;
3311;SDS011;1668;49.648;8.570;2024-03-23T01:15:49;16.20;;;11.17;;
3311;SDS011;1668;49.648;8.570;2024-03-23T01:18:17;14.00;;;11.07;;
3311;SDS011;1668;49.648;8.570;2024-03-23T01:20:43;14.60;;;10.00;;
3311;SDS011;1668;49.648;8.570;2024-03-23T01:23:10;13.23;;;10.90;;
3311;SDS011;1668;49.648;8.570;2024-03-23T01:25:37;14.63;;;11.10;;
3311;SDS011;1668;49.648;8.570;2024-03-23T01:28:06;15.53;;;10.70;;
3311;SDS011;1668;49.648;8.570;2024-03-23T01:30:32;13.93;;;10.17;;
3311;SDS011;1668;49.648;8.570;2024-03-23T01:32:59;14.60;;;11.03;;
3311;SDS011;1668;49.648;8.570;2024-03-23T01:35:25;15.97;;;11.53;;
3311;SDS011;1668;49.648;8.570;2024-03-23T01:37:52;24.67;;;10.90;;
3311;SDS011;1668;49.648;8.570;2024-03-23T01:40:18;16.10;;;11.20;;
3311;SDS011;1668;49.648;8.570;2024-03-23T01:42:54;14.50;;;10.23;;
3311;SDS011;1668;49.648;8.570;2024-03-23T01:45:22;15.00;;;10.10;;
3311;SDS011;1668;49.648;8.570;2024-03-23T01:47:49;15.37;;;10.87;;
3311;SDS011;1668;49.648;8.570;2024-03-23T01:50:15;14.83;;;9.80;;
3311;SDS011;1668;49.648;8.570;2024-03-23T01:52:43;14.70;;;9.97;;
3311;SDS011;1668;49.648;8.570;2024-03-23T01:55:09;12.27;;;9.27;;
3311;SDS011;1668;49.648;8.570;2024-03-23T01:57:37;13.33;;;9.37;;
3311;SDS011;1668;49.648;8.570;2024-03-23T02:00:04;13.20;;;8.77;;
3311;SDS011;1668;49.648;8.570;2024-03-23T02:02:34;12.43;;;9.03;;
3311;SDS011;1668;49.648;8.570;2024-03-23T02:05:00;14.07;;;9.03;;
3311;SDS011;1668;49.648;8.570;2024-03-23T02:07:27;15.80;;;9.53;;
3311;SDS011;1668;49.648;8.570;2024-03-23T02:09:53;18.50;;;9.80;;
3311;SDS011;1668;49.648;8.570;2024-03-23T02:12:21;16.90;;;8.50;;
3311;SDS011;1668;49.648;8.570;2024-03-23T02:14:47;13.30;;;8.83;;
3311;SDS011;1668;49.648;8.570;2024-03-23T02:17:14;13.90;;;8.87;;
3311;SDS011;1668;49.648;8.570;2024-03-23T02:19:41;11.83;;;9.00;;
3311;SDS011;1668;49.648;8.570;2024-03-23T02:22:09;12.30;;;9.20;;
3311;SDS011;1668;49.648;8.570;2024-03-23T02:24:37;11.50;;;8.70;;
3311;SDS011;1668;49.648;8.570;2024-03-23T02:27:04;13.90;;;8.83;;
3311;SDS011;1668;49.648;8.570;2024-03-23T02:29:30;11.20;;;8.40;;
3311;SDS011;1668;49.648;8.570;2024-03-23T02:31:57;13.37;;;8.97;;
3311;SDS011;1668;49.648;8.570;2024-03-23T02:34:24;12.97;;;8.97;;
3311;SDS011;1668;49.648;8.570;2024-03-23T02:36:51;20.60;;;9.33;;
3311;SDS011;1668;49.648;8.570;2024-03-23T02:39:17;12.10;;;9.30;;
3311;SDS011;1668;49.648;8.570;2024-03-23T02:41:45;12.30;;;9.10;;
3311;SDS011;1668;49.648;8.570;2024-03-23T02:44:12;14.07;;;8.10;;
3311;SDS011;1668;49.648;8.570;2024-03-23T02:46:39;10.63;;;8.73;;
3311;SDS011;1668;49.648;8.570;2024-03-23T02:49:06;12.90;;;8.23;;
3311;SDS011;1668;49.648;8.570;2024-03-23T02:51:34;12.20;;;8.90;;
3311;SDS011;1668;49.648;8.570;2024-03-23T02:54:00;14.70;;;9.53;;
3311;SDS011;1668;49.648;8.570;2024-03-23T02:56:27;11.70;;;8.97;;
3311;SDS011;1668;49.648;8.570;2024-03-23T02:58:54;13.13;;;9.93;;
3311;SDS011;1668;49.648;8.570;2024-03-23T03:01:21;14.50;;;10.87;;
3311;SDS011;1668;49.648;8.570;2024-03-23T03:03:47;13.87;;;9.73;;
3311;SDS011;1668;49.648;8.570;2024-03-23T03:06:22;13.83;;;10.20;;
3311;SDS011;1668;49.648;8.570;2024-03-23T03:08:48;16.33;;;10.80;;
3311;SDS011;1668;49.648;8.570;2024-03-23T03:11:15;15.60;;;10.93;;
3311;SDS011;1668;49.648;8.570;2024-03-23T03:13:41;16.63;;;12.13;;
3311;SDS011;1668;49.648;8.570;2024-03-23T03:16:10;18.50;;;12.53;;
3311;SDS011;1668;49.648;8.570;2024-03-23T03:18:36;17.50;;;12.57;;
3311;SDS011;1668;49.648;8.570;2024-03-23T03:21:03;17.37;;;11.97;;
3311;SDS011;1668;49.648;8.570;2024-03-23T03:23:30;21.10;;;13.20;;
3311;SDS011;1668;49.648;8.570;2024-03-23T03:25:57;17.83;;;12.10;;
3311;SDS011;1668;49.648;8.570;2024-03-23T03:28:23;20.00;;;12.90;;
3311;SDS011;1668;49.648;8.570;2024-03-23T03:30:51;17.60;;;12.93;;
3311;SDS011;1668;49.648;8.570;2024-03-23T03:33:18;26.83;;;13.23;;
3311;SDS011;1668;49.648;8.570;2024-03-23T03:35:45;18.07;;;11.73;;
3311;SDS011;1668;49.648;8.570;2024-03-23T03:38:11;17.83;;;12.40;;
3311;SDS011;1668;49.648;8.570;2024-03-23T03:40:38;19.07;;;12.47;;
3311;SDS011;1668;49.648;8.570;2024-03-23T03:43:04;19.07;;;12.20;;
3311;SDS011;1668;49.648;8.570;2024-03-23T03:45:31;19.90;;;11.73;;
3311;SDS011;1668;49.648;8.570;2024-03-23T03:47:57;17.57;;;11.50;;
3311;SDS011;1668;49.648;8.570;2024-03-23T03:50:26;19.03;;;12.63;;
3311;SDS011;1668;49.648;8.570;2024-03-23T03:52:52;18.90;;;11.80;;
3311;SDS011;1668;49.648;8.570;2024-03-23T03:55:19;21.23;;;12.50;;
3311;SDS011;1668;49.648;8.570;2024-03-23T03:57:45;18.30;;;12.50;;
3311;SDS011;1668;49.648;8.570;2024-03-23T04:00:12;22.77;;;13.60;;
3311;SDS011;1668;49.648;8.570;2024-03-23T04:02:39;22.80;;;13.70;;
3311;SDS011;1668;49.648;8.570;2024-03-23T04:05:06;19.43;;;12.50;;
3311;SDS011;1668;49.648;8.570;2024-03-23T04:07:34;28.03;;;14.13;;
3311;SDS011;1668;49.648;8.570;2024-03-23T04:10:01;20.80;;;14.23;;
3311;SDS011;1668;49.648;8.570;2024-03-23T04:12:32;22.70;;;13.83;;
3311;SDS011;1668;49.648;8.570;2024-03-23T04:14:59;19.70;;;12.53;;
3311;SDS011;1668;49.648;8.570;2024-03-23T04:17:26;19.80;;;13.03;;
3311;SDS011;1668;49.648;8.570;2024-03-23T04:19:56;18.60;;;13.10;;
3311;SDS011;1668;49.648;8.570;2024-03-23T04:22:23;19.90;;;13.03;;
3311;SDS011;1668;49.648;8.570;2024-03-23T04:24:52;20.60;;;14.60;;
3311;SDS011;1668;49.648;8.570;2024-03-23T04:27:19;25.77;;;13.03;;
3311;SDS011;1668;49.648;8.570;2024-03-23T04:29:46;18.40;;;12.90;;
3311;SDS011;1668;49.648;8.570;2024-03-23T04:32:13;20.37;;;11.83;;
3311;SDS011;1668;49.648;8.570;2024-03-23T04:34:41;20.17;;;11.90;;
3311;SDS011;1668;49.648;8.570;2024-03-23T04:37:07;21.00;;;12.37;;
3311;SDS011;1668;49.648;8.570;2024-03-23T04:39:34;17.60;;;11.87;;
3311;SDS011;1668;49.648;8.570;2024-03-23T04:42:03;17.13;;;11.40;;
3311;SDS011;1668;49.648;8.570;2024-03-23T04:44:31;17.83;;;12.57;;
3311;SDS011;1668;49.648;8.570;2024-03-23T04:46:59;18.33;;;12.33;;
3311;SDS011;1668;49.648;8.570;2024-03-23T04:49:26;18.07;;;12.33;;
3311;SDS011;1668;49.648;8.570;2024-03-23T04:51:54;21.63;;;12.90;;
3311;SDS011;1668;49.648;8.570;2024-03-23T04:54:21;19.27;;;12.97;;
3311;SDS011;1668;49.648;8.570;2024-03-23T04:56:47;20.90;;;13.03;;
3311;SDS011;1668;49.648;8.570;2024-03-23T04:59:15;18.23;;;12.73;;
3311;SDS011;1668;49.648;8.570;2024-03-23T05:01:41;18.20;;;12.87;;
3311;SDS011;1668;49.648;8.570;2024-03-23T05:04:08;13.83;;;8.57;;
3311;SDS011;1668;49.648;8.570;2024-03-23T05:06:35;9.63;;;5.13;;
3311;SDS011;1668;49.648;8.570;2024-03-23T05:09:02;4.83;;;3.97;;
3311;SDS011;1668;49.648;8.570;2024-03-23T05:11:31;5.77;;;4.10;;
3311;SDS011;1668;49.648;8.570;2024-03-23T05:13:58;4.27;;;3.37;;
3311;SDS011;1668;49.648;8.570;2024-03-23T05:16:25;4.27;;;2.93;;
3311;SDS011;1668;49.648;8.570;2024-03-23T05:18:53;2.50;;;2.10;;
3311;SDS011;1668;49.648;8.570;2024-03-23T05:21:19;3.03;;;2.07;;
3311;SDS011;1668;49.648;8.570;2024-03-23T05:23:46;2.77;;;2.00;;
3311;SDS011;1668;49.648;8.570;2024-03-23T05:26:12;3.00;;;2.13;;
3311;SDS011;1668;49.648;8.570;2024-03-23T05:28:39;5.30;;;2.40;;
3311;SDS011;1668;49.648;8.570;2024-03-23T05:31:05;2.13;;;1.87;;
3311;SDS011;1668;49.648;8.570;2024-03-23T05:33:35;2.93;;;2.13;;
3311;SDS011;1668;49.648;8.570;2024-03-23T05:36:03;2.90;;;2.30;;
3311;SDS011;1668;49.648;8.570;2024-03-23T05:38:31;2.83;;;2.33;;
3311;SDS011;1668;49.648;8.570;2024-03-23T05:40:57;3.20;;;2.50;;
3311;SDS011;1668;49.648;8.570;2024-03-23T05:43:25;3.50;;;2.43;;
3311;SDS011;1668;49.648;8.570;2024-03-23T05:45:54;2.70;;;2.03;;
3311;SDS011;1668;49.648;8.570;2024-03-23T05:48:21;2.50;;;2.10;;
3311;SDS011;1668;49.648;8.570;2024-03-23T05:50:48;2.20;;;1.70;;
3311;SDS011;1668;49.648;8.570;2024-03-23T05:53:16;2.97;;;2.43;;
3311;SDS011;1668;49.648;8.570;2024-03-23T05:55:43;2.23;;;1.70;;
3311;SDS011;1668;49.648;8.570;2024-03-23T05:58:10;1.87;;;1.60;;
3311;SDS011;1668;49.648;8.570;2024-03-23T06:00:36;2.30;;;1.67;;
3311;SDS011;1668;49.648;8.570;2024-03-23T06:03:03;2.20;;;1.90;;
3311;SDS011;1668;49.648;8.570;2024-03-23T06:05:30;1.90;;;1.70;;
3311;SDS011;1668;49.648;8.570;2024-03-23T06:07:58;2.10;;;1.70;;
3311;SDS011;1668;49.648;8.570;2024-03-23T06:10:24;3.17;;;1.87;;
3311;SDS011;1668;49.648;8.570;2024-03-23T06:12:51;1.97;;;1.50;;
3311;SDS011;1668;49.648;8.570;2024-03-23T06:15:17;1.60;;;1.27;;
3311;SDS011;1668;49.648;8.570;2024-03-23T06:17:44;2.43;;;1.40;;
3311;SDS011;1668;49.648;8.570;2024-03-23T06:20:10;1.97;;;1.60;;
3311;SDS011;1668;49.648;8.570;2024-03-23T06:22:38;1.60;;;1.47;;
3311;SDS011;1668;49.648;8.570;2024-03-23T06:25:06;2.30;;;1.70;;
3311;SDS011;1668;49.648;8.570;2024-03-23T06:27:33;1.73;;;1.43;;
3311;SDS011;1668;49.648;8.570;2024-03-23T06:29:59;2.40;;;1.60;;
3311;SDS011;1668;49.648;8.570;2024-03-23T06:32:27;4.23;;;1.40;;
3311;SDS011;1668;49.648;8.570;2024-03-23T06:34:54;2.10;;;1.70;;
3311;SDS011;1668;49.648;8.570;2024-03-23T06:37:21;1.73;;;1.53;;
3311;SDS011;1668;49.648;8.570;2024-03-23T06:39:47;1.73;;;1.37;;
3311;SDS011;1668;49.648;8.570;2024-03-23T06:42:15;1.53;;;1.40;;
3311;SDS011;1668;49.648;8.570;2024-03-23T06:44:41;3.03;;;1.67;;
3311;SDS011;1668;49.648;8.570;2024-03-23T06:47:09;3.10;;;2.00;;
3311;SDS011;1668;49.648;8.570;2024-03-23T06:49:35;3.47;;;1.70;;
3311;SDS011;1668;49.648;8.570;2024-03-23T06:52:02;2.70;;;1.80;;
3311;SDS011;1668;49.648;8.570;2024-03-23T06:54:28;2.00;;;1.73;;
3311;SDS011;1668;49.648;8.570;2024-03-23T06:56:55;3.23;;;2.00;;
3311;SDS011;1668;49.648;8.570;2024-03-23T06:59:23;2.00;;;1.53;;
3311;SDS011;1668;49.648;8.570;2024-03-23T07:01:50;4.03;;;1.53;;
3311;SDS011;1668;49.648;8.570;2024-03-23T07:04:16;2.57;;;1.43;;
3311;SDS011;1668;49.648;8.570;2024-03-23T07:06:43;3.67;;;1.40;;
3311;SDS011;1668;49.648;8.570;2024-03-23T07:09:10;1.73;;;1.30;;
3311;SDS011;1668;49.648;8.570;2024-03-23T07:11:36;1.47;;;1.17;;
3311;SDS011;1668;49.648;8.570;2024-03-23T07:14:03;1.50;;;1.30;;
3311;SDS011;1668;49.648;8.570;2024-03-23T07:16:31;1.47;;;1.20;;
3311;SDS011;1668;49.648;8.570;2024-03-23T07:18:57;1.30;;;1.20;;
3311;SDS011;1668;49.648;8.570;2024-03-23T07:21:24;1.30;;;0.90;;
3311;SDS011;1668;49.648;8.570;2024-03-23T07:23:50;1.00;;;0.70;;
3311;SDS011;1668;49.648;8.570;2024-03-23T07:26:17;1.37;;;0.80;;
3311;SDS011;1668;49.648;8.570;2024-03-23T07:28:44;1.40;;;0.80;;
3311;SDS011;1668;49.648;8.570;2024-03-23T07:31:12;0.90;;;0.80;;
3311;SDS011;1668;49.648;8.570;2024-03-23T07:33:43;1.77;;;0.83;;
3311;SDS011;1668;49.648;8.570;2024-03-23T07:36:11;1.53;;;1.00;;
3311;SDS011;1668;49.648;8.570;2024-03-23T07:38:39;1.60;;;1.30;;
3311;SDS011;1668;49.648;8.570;2024-03-23T07:41:08;1.80;;;1.20;;
3311;SDS011;1668;49.648;8.570;2024-03-23T07:43:35;1.73;;;1.20;;
3311;SDS011;1668;49.648;8.570;2024-03-23T07:46:03;2.13;;;1.57;;
3311;SDS011;1668;49.648;8.570;2024-03-23T07:48:29;2.60;;;1.83;;
3311;SDS011;1668;49.648;8.570;2024-03-23T07:51:01;4.23;;;1.90;;
3311;SDS011;1668;49.648;8.570;2024-03-23T07:53:28;3.87;;;1.97;;
3311;SDS011;1668;49.648;8.570;2024-03-23T07:55:56;3.00;;;1.80;;
3311;SDS011;1668;49.648;8.570;2024-03-23T07:58:23;3.80;;;2.40;;
3311;SDS011;1668;49.648;8.570;2024-03-23T08:00:50;4.17;;;2.20;;
3311;SDS011;1668;49.648;8.570;2024-03-23T08:03:16;4.53;;;2.70;;
3311;SDS011;1668;49.648;8.570;2024-03-23T08:05:43;2.80;;;2.20;;
3311;SDS011;1668;49.648;8.570;2024-03-23T08:08:10;3.33;;;2.23;;
3311;SDS011;1668;49.648;8.570;2024-03-23T08:10:37;3.50;;;2.13;;
3311;SDS011;1668;49.648;8.570;2024-03-23T08:13:12;4.10;;;2.67;;
3311;SDS011;1668;49.648;8.570;2024-03-23T08:15:39;4.73;;;2.40;;
3311;SDS011;1668;49.648;8.570;2024-03-23T08:18:05;4.57;;;2.27;;
3311;SDS011;1668;49.648;8.570;2024-03-23T08:20:32;4.50;;;2.50;;
3311;SDS011;1668;49.648;8.570;2024-03-23T08:22:58;4.90;;;2.63;;
3311;SDS011;1668;49.648;8.570;2024-03-23T08:25:26;6.20;;;2.43;;
3311;SDS011;1668;49.648;8.570;2024-03-23T08:27:52;4.10;;;2.60;;
3311;SDS011;1668;49.648;8.570;2024-03-23T08:30:19;5.63;;;2.30;;
3311;SDS011;1668;49.648;8.570;2024-03-23T08:32:45;2.70;;;1.97;;
3311;SDS011;1668;49.648;8.570;2024-03-23T08:35:12;5.70;;;2.53;;
3311;SDS011;1668;49.648;8.570;2024-03-23T08:37:38;6.00;;;2.23;;
3311;SDS011;1668;49.648;8.570;2024-03-23T08:40:06;3.70;;;2.23;;
3311;SDS011;1668;49.648;8.570;2024-03-23T08:42:34;4.33;;;2.53;;
3311;SDS011;1668;49.648;8.570;2024-03-23T08:45:02;8.40;;;2.43;;
3311;SDS011;1668;49.648;8.570;2024-03-23T08:47:28;5.20;;;2.40;;
3311;SDS011;1668;49.648;8.570;2024-03-23T08:49:55;4.60;;;2.37;;
3311;SDS011;1668;49.648;8.570;2024-03-23T08:52:23;5.43;;;2.63;;
3311;SDS011;1668;49.648;8.570;2024-03-23T08:54:52;7.00;;;2.60;;
3311;SDS011;1668;49.648;8.570;2024-03-23T08:57:18;7.47;;;2.57;;
3311;SDS011;1668;49.648;8.570;2024-03-23T08:59:46;4.80;;;2.50;;
3311;SDS011;1668;49.648;8.570;2024-03-23T09:02:12;8.77;;;3.03;;
3311;SDS011;1668;49.648;8.570;2024-03-23T09:04:39;7.83;;;2.97;;
3311;SDS011;1668;49.648;8.570;2024-03-23T09:07:05;4.07;;;2.43;;
3311;SDS011;1668;49.648;8.570;2024-03-23T09:09:32;6.77;;;2.60;;
3311;SDS011;1668;49.648;8.570;2024-03-23T09:11:57;9.53;;;3.57;;
3311;SDS011;1668;49.648;8.570;2024-03-23T09:14:24;4.60;;;2.93;;
3311;SDS011;1668;49.648;8.570;2024-03-23T09:16:52;7.50;;;3.50;;
3311;SDS011;1668;49.648;8.570;2024-03-23T09:19:19;10.27;;;3.00;;
3311;SDS011;1668;49.648;8.570;2024-03-23T09:21:45;5.20;;;2.90;;
3311;SDS011;1668;49.648;8.570;2024-03-23T09:24:12;8.67;;;3.90;;
3311;SDS011;1668;49.648;8.570;2024-03-23T09:26:37;8.07;;;2.97;;
3311;SDS011;1668;49.648;8.570;2024-03-23T09:29:04;6.80;;;3.63;;
3311;SDS011;1668;49.648;8.570;2024-03-23T09:31:30;9.07;;;4.17;;
3311;SDS011;1668;49.648;8.570;2024-03-23T09:34:00;16.50;;;4.80;;
3311;SDS011;1668;49.648;8.570;2024-03-23T09:36:26;7.80;;;3.10;;
3311;SDS011;1668;49.648;8.570;2024-03-23T09:38:53;7.97;;;3.33;;
3311;SDS011;1668;49.648;8.570;2024-03-23T09:41:18;5.53;;;2.73;;
3311;SDS011;1668;49.648;8.570;2024-03-23T09:43:45;9.00;;;3.40;;
3311;SDS011;1668;49.648;8.570;2024-03-23T09:46:13;9.20;;;2.77;;
3311;SDS011;1668;49.648;8.570;2024-03-23T09:48:41;5.70;;;2.80;;
3311;SDS011;1668;49.648;8.570;2024-03-23T09:51:12;6.23;;;3.10;;
3311;SDS011;1668;49.648;8.570;2024-03-23T09:53:39;8.10;;;2.00;;
3311;SDS011;1668;49.648;8.570;2024-03-23T09:56:07;7.17;;;2.90;;
3311;SDS011;1668;49.648;8.570;2024-03-23T09:58:34;6.37;;;2.60;;
3311;SDS011;1668;49.648;8.570;2024-03-23T10:01:00;9.20;;;3.00;;
3311;SDS011;1668;49.648;8.570;2024-03-23T10:03:28;8.97;;;3.03;;
3311;SDS011;1668;49.648;8.570;2024-03-23T10:06:00;7.53;;;2.63;;
3311;SDS011;1668;49.648;8.570;2024-03-23T10:08:29;6.10;;;2.40;;
3311;SDS011;1668;49.648;8.570;2024-03-23T10:10:55;10.30;;;3.00;;
3311;SDS011;1668;49.648;8.570;2024-03-23T10:13:26;10.80;;;3.20;;
3311;SDS011;1668;49.648;8.570;2024-03-23T10:15:56;8.80;;;2.80;;
3311;SDS011;1668;49.648;8.570;2024-03-23T10:18:24;10.57;;;3.60;;
3311;SDS011;1668;49.648;8.570;2024-03-23T10:20:51;9.73;;;2.97;;
3311;SDS011;1668;49.648;8.570;2024-03-23T10:23:33;11.77;;;3.27;;
3311;SDS011;1668;49.648;8.570;2024-03-23T10:26:11;6.37;;;2.80;;
3311;SDS011;1668;49.648;8.570;2024-03-23T10:28:50;7.90;;;2.90;;
3311;SDS011;1668;49.648;8.570;2024-03-23T10:31:17;7.00;;;3.10;;
3311;SDS011;1668;49.648;8.570;2024-03-23T10:33:44;7.03;;;2.30;;
3311;SDS011;1668;49.648;8.570;2024-03-23T10:36:11;7.13;;;2.60;;
3311;SDS011;1668;49.648;8.570;2024-03-23T10:38:40;9.43;;;3.00;;
3311;SDS011;1668;49.648;8.570;2024-03-23T10:41:08;9.20;;;2.47;;
3311;SDS011;1668;49.648;8.570;2024-03-23T10:43:36;7.13;;;2.07;;
3311;SDS011;1668;49.648;8.570;2024-03-23T10:46:02;7.63;;;2.10;;
3311;SDS011;1668;49.648;8.570;2024-03-23T10:48:29;6.00;;;2.30;;
3311;SDS011;1668;49.648;8.570;2024-03-23T10:50:55;9.13;;;2.20;;
3311;SDS011;1668;49.648;8.570;2024-03-23T10:53:23;6.83;;;2.30;;
3311;SDS011;1668;49.648;8.570;2024-03-23T10:55:52;4.53;;;2.07;;
3311;SDS011;1668;49.648;8.570;2024-03-23T10:58:21;6.50;;;2.00;;
3311;SDS011;1668;49.648;8.570;2024-03-23T11:00:49;5.97;;;2.10;;
3311;SDS011;1668;49.648;8.570;2024-03-23T11:03:31;5.20;;;1.83;;
3311;SDS011;1668;49.648;8.570;2024-03-23T11:05:58;7.73;;;2.03;;
3311;SDS011;1668;49.648;8.570;2024-03-23T11:08:32;8.17;;;2.77;;
3311;SDS011;1668;49.648;8.570;2024-03-23T11:11:13;7.33;;;2.50;;
3311;SDS011;1668;49.648;8.570;2024-03-23T11:13:41;5.83;;;2.07;;
3311;SDS011;1668;49.648;8.570;2024-03-23T11:16:13;6.43;;;2.07;;
3311;SDS011;1668;49.648;8.570;2024-03-23T11:18:41;5.37;;;1.80;;
3311;SDS011;1668;49.648;8.570;2024-03-23T11:21:07;5.97;;;1.83;;
3311;SDS011;1668;49.648;8.570;2024-03-23T11:23:34;5.03;;;1.63;;
3311;SDS011;1668;49.648;8.570;2024-03-23T11:26:00;16.00;;;2.20;;
3311;SDS011;1668;49.648;8.570;2024-03-23T11:28:29;2.90;;;1.70;;
3311;SDS011;1668;49.648;8.570;2024-03-23T11:30:58;98.93;;;7.40;;
3311;SDS011;1668;49.648;8.570;2024-03-23T11:33:24;8.03;;;1.70;;
3311;SDS011;1668;49.648;8.570;2024-03-23T11:35:51;2.17;;;1.37;;
3311;SDS011;1668;49.648;8.570;2024-03-23T11:38:17;3.33;;;1.30;;
3311;SDS011;1668;49.648;8.570;2024-03-23T11:40:45;3.03;;;1.10;;
3311;SDS011;1668;49.648;8.570;2024-03-23T11:43:12;2.27;;;1.00;;
3311;SDS011;1668;49.648;8.570;2024-03-23T11:45:42;4.03;;;1.10;;
3311;SDS011;1668;49.648;8.570;2024-03-23T11:48:09;2.00;;;1.20;;
3311;SDS011;1668;49.648;8.570;2024-03-23T11:50:38;13.83;;;1.60;;
3311;SDS011;1668;49.648;8.570;2024-03-23T11:53:06;2.83;;;1.20;;
3311;SDS011;1668;49.648;8.570;2024-03-23T11:55:45;16.40;;;2.10;;
3311;SDS011;1668;49.648;8.570;2024-03-23T11:58:13;2.93;;;1.53;;
3311;SDS011;1668;49.648;8.570;2024-03-23T12:00:42;4.33;;;1.90;;
3311;SDS011;1668;49.648;8.570;2024-03-23T12:03:16;3.63;;;1.40;;
3311;SDS011;1668;49.648;8.570;2024-03-23T12:05:46;3.20;;;1.87;;
3311;SDS011;1668;49.648;8.570;2024-03-23T12:08:15;2.50;;;1.30;;
3311;SDS011;1668;49.648;8.570;2024-03-23T12:10:47;4.80;;;1.33;;
3311;SDS011;1668;49.648;8.570;2024-03-23T12:13:15;2.30;;;1.50;;
3311;SDS011;1668;49.648;8.570;2024-03-23T12:15:44;4.10;;;1.40;;
3311;SDS011;1668;49.648;8.570;2024-03-23T12:18:12;3.03;;;1.50;;
3311;SDS011;1668;49.648;8.570;2024-03-23T12:20:39;3.73;;;1.50;;
3311;SDS011;1668;49.648;8.570;2024-03-23T12:23:06;4.10;;;1.30;;
3311;SDS011;1668;49.648;8.570;2024-03-23T12:25:35;4.20;;;1.60;;
3311;SDS011;1668;49.648;8.570;2024-03-23T12:28:03;2.30;;;1.37;;
3311;SDS011;1668;49.648;8.570;2024-03-23T12:30:31;3.07;;;1.40;;
3311;SDS011;1668;49.648;8.570;2024-03-23T12:33:00;5.87;;;1.67;;
3311;SDS011;1668;49.648;8.570;2024-03-23T12:35:26;3.67;;;1.77;;
3311;SDS011;1668;49.648;8.570;2024-03-23T12:37:53;4.53;;;1.50;;
3311;SDS011;1668;49.648;8.570;2024-03-23T12:40:20;3.40;;;1.47;;
3311;SDS011;1668;49.648;8.570;2024-03-23T12:42:47;6.40;;;1.70;;
3311;SDS011;1668;49.648;8.570;2024-03-23T12:45:13;4.20;;;1.90;;
3311;SDS011;1668;49.648;8.570;2024-03-23T12:47:40;4.40;;;1.97;;
3311;SDS011;1668;49.648;8.570;2024-03-23T12:50:08;5.10;;;2.20;;
3311;SDS011;1668;49.648;8.570;2024-03-23T12:52:36;5.90;;;2.20;;
3311;SDS011;1668;49.648;8.570;2024-03-23T12:55:02;10.57;;;2.37;;
3311;SDS011;1668;49.648;8.570;2024-03-23T12:57:31;4.87;;;2.50;;
3311;SDS011;1668;49.648;8.570;2024-03-23T12:59:57;5.97;;;2.60;;
3311;SDS011;1668;49.648;8.570;2024-03-23T13:02:24;4.33;;;1.90;;
3311;SDS011;1668;49.648;8.570;2024-03-23T13:04:51;6.70;;;1.93;;
3311;SDS011;1668;49.648;8.570;2024-03-23T13:07:20;3.10;;;1.50;;
3311;SDS011;1668;49.648;8.570;2024-03-23T13:09:49;7.40;;;1.40;;
3311;SDS011;1668;49.648;8.570;2024-03-23T13:12:17;4.90;;;1.43;;
3311;SDS011;1668;49.648;8.570;2024-03-23T13:14:44;4.07;;;2.20;;
3311;SDS011;1668;49.648;8.570;2024-03-23T13:17:11;1.43;;;1.10;;
3311;SDS011;1668;49.648;8.570;2024-03-23T13:19:37;5.07;;;1.20;;
3311;SDS011;1668;49.648;8.570;2024-03-23T13:22:04;4.33;;;0.87;;
3311;SDS011;1668;49.648;8.570;2024-03-23T13:24:32;4.80;;;1.33;;
3311;SDS011;1668;49.648;8.570;2024-03-23T13:26:59;3.63;;;1.10;;
3311;SDS011;1668;49.648;8.570;2024-03-23T13:29:25;1.00;;;0.70;;
3311;SDS011;1668;49.648;8.570;2024-03-23T13:31:52;2.10;;;0.80;;
3311;SDS011;1668;49.648;8.570;2024-03-23T13:34:18;12.63;;;2.03;;
3311;SDS011;1668;49.648;8.570;2024-03-23T13:36:45;2.50;;;1.00;;
3311;SDS011;1668;49.648;8.570;2024-03-23T13:39:12;2.10;;;1.00;;
3311;SDS011;1668;49.648;8.570;2024-03-23T13:41:41;1.80;;;1.00;;
3311;SDS011;1668;49.648;8.570;2024-03-23T13:44:08;1.20;;;0.80;;
3311;SDS011;1668;49.648;8.570;2024-03-23T13:46:36;1.73;;;0.90;;
3311;SDS011;1668;49.648;8.570;2024-03-23T13:49:02;4.50;;;1.30;;
3311;SDS011;1668;49.648;8.570;2024-03-23T13:51:30;3.53;;;1.03;;
3311;SDS011;1668;49.648;8.570;2024-03-23T13:53:56;6.40;;;1.30;;
3311;SDS011;1668;49.648;8.570;2024-03-23T13:56:26;3.30;;;1.27;;
3311;SDS011;1668;49.648;8.570;2024-03-23T13:58:54;2.43;;;1.10;;
3311;SDS011;1668;49.648;8.570;2024-03-23T14:01:21;2.70;;;1.73;;
3311;SDS011;1668;49.648;8.570;2024-03-23T14:03:47;4.80;;;1.03;;
3311;SDS011;1668;49.648;8.570;2024-03-23T14:06:15;3.70;;;1.20;;
3311;SDS011;1668;49.648;8.570;2024-03-23T14:08:41;2.80;;;1.27;;
3311;SDS011;1668;49.648;8.570;2024-03-23T14:11:08;5.30;;;1.40;;
3311;SDS011;1668;49.648;8.570;2024-03-23T14:13:35;3.57;;;1.50;;
3311;SDS011;1668;49.648;8.570;2024-03-23T14:16:04;3.70;;;1.13;;
3311;SDS011;1668;49.648;8.570;2024-03-23T14:18:30;1.63;;;0.90;;
3311;SDS011;1668;49.648;8.570;2024-03-23T14:20:58;2.63;;;1.20;;
3311;SDS011;1668;49.648;8.570;2024-03-23T14:23:25;2.00;;;0.80;;
3311;SDS011;1668;49.648;8.570;2024-03-23T14:25:54;2.23;;;1.00;;
3311;SDS011;1668;49.648;8.570;2024-03-23T14:28:20;1.67;;;0.90;;
3311;SDS011;1668;49.648;8.570;2024-03-23T14:30:47;2.10;;;0.70;;
3311;SDS011;1668;49.648;8.570;2024-03-23T14:33:16;2.93;;;1.30;;
3311;SDS011;1668;49.648;8.570;2024-03-23T14:35:43;5.40;;;1.40;;
3311;SDS011;1668;49.648;8.570;2024-03-23T14:38:16;4.03;;;1.50;;
3311;SDS011;1668;49.648;8.570;2024-03-23T14:40:43;2.90;;;1.10;;
3311;SDS011;1668;49.648;8.570;2024-03-23T14:43:09;2.80;;;1.47;;
3311;SDS011;1668;49.648;8.570;2024-03-23T14:45:36;2.40;;;0.97;;
3311;SDS011;1668;49.648;8.570;2024-03-23T14:48:02;2.20;;;1.20;;
3311;SDS011;1668;49.648;8.570;2024-03-23T14:50:30;1.83;;;1.00;;
3311;SDS011;1668;49.648;8.570;2024-03-23T14:52:56;2.13;;;0.83;;
3311;SDS011;1668;49.648;8.570;2024-03-23T14:55:23;1.90;;;0.80;;
3311;SDS011;1668;49.648;8.570;2024-03-23T14:57:49;1.60;;;0.90;;
3311;SDS011;1668;49.648;8.570;2024-03-23T15:00:16;2.23;;;1.17;;
3311;SDS011;1668;49.648;8.570;2024-03-23T15:02:43;1.30;;;0.70;;
3311;SDS011;1668;49.648;8.570;2024-03-23T15:05:10;1.77;;;1.00;;
3311;SDS011;1668;49.648;8.570;2024-03-23T15:07:38;3.20;;;1.10;;
3311;SDS011;1668;49.648;8.570;2024-03-23T15:10:06;2.93;;;1.00;;
3311;SDS011;1668;49.648;8.570;2024-03-23T15:12:33;1.00;;;0.80;;
3311;SDS011;1668;49.648;8.570;2024-03-23T15:15:00;4.10;;;1.30;;
3311;SDS011;1668;49.648;8.570;2024-03-23T15:17:25;2.13;;;0.90;;
3311;SDS011;1668;49.648;8.570;2024-03-23T15:19:53;4.60;;;0.80;;
3311;SDS011;1668;49.648;8.570;2024-03-23T15:22:18;2.47;;;0.93;;
3311;SDS011;1668;49.648;8.570;2024-03-23T15:24:47;3.90;;;1.07;;
3311;SDS011;1668;49.648;8.570;2024-03-23T15:27:13;2.17;;;1.33;;
3311;SDS011;1668;49.648;8.570;2024-03-23T15:29:40;3.50;;;1.73;;
3311;SDS011;1668;49.648;8.570;2024-03-23T15:32:10;3.80;;;1.97;;
3311;SDS011;1668;49.648;8.570;2024-03-23T15:34:39;2.80;;;1.50;;
3311;SDS011;1668;49.648;8.570;2024-03-23T15:37:05;0.90;;;0.70;;
3311;SDS011;1668;49.648;8.570;2024-03-23T15:39:32;6.33;;;1.20;;
3311;SDS011;1668;49.648;8.570;2024-03-23T15:41:59;3.70;;;0.80;;
3311;SDS011;1668;49.648;8.570;2024-03-23T15:44:26;4.07;;;1.13;;
3311;SDS011;1668;49.648;8.570;2024-03-23T15:46:52;1.43;;;0.90;;
3311;SDS011;1668;49.648;8.570;2024-03-23T15:49:19;3.93;;;1.40;;
3311;SDS011;1668;49.648;8.570;2024-03-23T15:51:44;4.27;;;2.50;;
3311;SDS011;1668;49.648;8.570;2024-03-23T15:54:11;2.03;;;1.30;;
3311;SDS011;1668;49.648;8.570;2024-03-23T15:56:37;1.77;;;1.13;;
3311;SDS011;1668;49.648;8.570;2024-03-23T15:59:05;1.77;;;0.93;;
3311;SDS011;1668;49.648;8.570;2024-03-23T16:01:32;2.47;;;0.77;;